Time;durP1;ratioP1;P1;durP2;ratioP2;P2;SDS_P1;SDS_P2;PMS_P1;PMS_P2;Temp;Humidity;BMP_temperature;BMP_pressure;BME280_temperature;BME280_humidity;BME280_pressure;Samples;Min_cycle;Max_cycle;Signal;HPM_P1;HPM_P2
2023/06/08 00:00:26;;;;;;;4.27;3.53;;;16.50;99.90;;;;;;5034309;28;20223;-78
2023/06/08 00:02:55;;;;;;;4.33;3.67;;;16.50;99.90;;;;;;5034182;28;20223;-78
2023/06/08 00:05:23;;;;;;;4.87;3.73;;;16.50;99.90;;;;;;5032900;28;20192;-78
2023/06/08 00:07:50;;;;;;;4.20;3.53;;;16.50;99.90;;;;;;5033298;28;20283;-78
2023/06/08 00:10:18;;;;;;;4.20;3.50;;;16.50;99.90;;;;;;5032325;28;20662;-78
2023/06/08 00:12:45;;;;;;;4.73;3.73;;;16.50;99.90;;;;;;5033892;28;20257;-78
2023/06/08 00:15:13;;;;;;;3.70;3.40;;;16.50;99.90;;;;;;5032948;28;20261;-78
2023/06/08 00:17:40;;;;;;;4.20;3.50;;;16.40;99.90;;;;;;5033426;28;20196;-78
2023/06/08 00:20:09;;;;;;;3.93;3.53;;;16.40;99.90;;;;;;5032040;28;20699;-78
2023/06/08 00:22:36;;;;;;;4.47;3.93;;;16.40;99.90;;;;;;5032955;28;20243;-78
2023/06/08 00:25:04;;;;;;;4.00;3.50;;;16.30;99.90;;;;;;5032851;28;20231;-78
2023/06/08 00:27:32;;;;;;;4.20;3.73;;;16.30;99.90;;;;;;5033806;28;20215;-78
2023/06/08 00:29:59;;;;;;;3.83;3.43;;;16.30;99.90;;;;;;5032450;28;20720;-78
2023/06/08 00:32:25;;;;;;;4.10;3.57;;;16.30;99.90;;;;;;5032992;28;20799;-79
2023/06/08 00:34:52;;;;;;;4.07;3.30;;;16.30;99.90;;;;;;5034085;28;20203;-77
2023/06/08 00:37:19;;;;;;;3.97;3.40;;;16.30;99.90;;;;;;5031458;28;20192;-79
2023/06/08 00:39:46;;;;;;;4.83;3.97;;;16.20;99.90;;;;;;5032319;28;20199;-78
2023/06/08 00:42:12;;;;;;;4.10;3.70;;;16.10;99.90;;;;;;5032018;28;20636;-78
2023/06/08 00:44:41;;;;;;;4.87;3.63;;;16.10;99.90;;;;;;5033892;28;20203;-78
2023/06/08 00:47:08;;;;;;;3.43;3.13;;;16.00;99.90;;;;;;5031950;28;20208;-78
2023/06/08 00:49:36;;;;;;;4.60;3.43;;;16.00;99.90;;;;;;5027574;28;20216;-78
2023/06/08 00:52:03;;;;;;;5.20;3.80;;;16.00;99.90;;;;;;5031555;28;20751;-79
2023/06/08 00:54:31;;;;;;;4.77;3.80;;;16.00;99.90;;;;;;5033776;28;20567;-78
2023/06/08 00:57:00;;;;;;;3.80;3.50;;;16.00;99.90;;;;;;5026945;28;20210;-79
2023/06/08 00:59:29;;;;;;;4.57;3.63;;;16.00;99.90;;;;;;5028299;28;20196;-78
2023/06/08 01:01:58;;;;;;;4.90;3.90;;;16.00;99.90;;;;;;5023674;28;20211;-78
2023/06/08 01:04:26;;;;;;;4.27;3.87;;;15.90;99.90;;;;;;5029250;28;20214;-78
2023/06/08 01:07:04;;;;;;;5.07;4.10;;;15.90;99.90;;;;;;5031663;28;20298;-78
2023/06/08 01:09:50;;;;;;;5.03;4.50;;;15.80;99.90;;;;;;5024037;28;20321;-78
2023/06/08 01:12:25;;;;;;;6.07;4.40;;;15.70;99.90;;;;;;5032686;28;20219;-78
2023/06/08 01:14:59;;;;;;;5.63;4.07;;;15.70;99.90;;;;;;5028561;28;20208;-78
2023/06/08 01:17:35;;;;;;;6.27;4.17;;;15.60;99.90;;;;;;5038720;28;20330;-78
2023/06/08 01:20:13;;;;;;;4.37;3.70;;;15.50;99.90;;;;;;5031327;28;20199;-78
2023/06/08 01:22:56;;;;;;;4.93;4.30;;;15.40;99.90;;;;;;5040193;28;20638;-78
2023/06/08 01:25:28;;;;;;;4.60;3.93;;;15.30;99.90;;;;;;5023919;28;20207;-79
2023/06/08 01:28:12;;;;;;;4.63;4.10;;;15.30;99.90;;;;;;5032055;28;20203;-78
2023/06/08 01:30:40;;;;;;;4.70;4.30;;;15.20;99.90;;;;;;5031841;28;20223;-78
2023/06/08 01:33:08;;;;;;;7.13;5.10;;;15.10;99.90;;;;;;5027852;28;20227;-78
2023/06/08 01:35:35;;;;;;;5.33;3.90;;;15.10;99.90;;;;;;5027165;28;20554;-78
2023/06/08 01:38:16;;;;;;;5.57;4.97;;;15.00;99.90;;;;;;5044250;28;20218;-78
2023/06/08 01:40:49;;;;;;;6.03;5.43;;;15.00;99.90;;;;;;5042734;28;20196;-78
2023/06/08 01:43:17;;;;;;;5.00;4.60;;;14.90;99.90;;;;;;5036817;28;20253;-79
2023/06/08 01:45:50;;;;;;;5.70;4.20;;;15.00;99.90;;;;;;5034828;28;20204;-78
2023/06/08 01:48:20;;;;;;;6.33;5.73;;;14.90;99.90;;;;;;5036322;28;20194;-78
2023/06/08 01:50:49;;;;;;;6.60;6.00;;;14.90;99.90;;;;;;5047688;28;20254;-79
2023/06/08 01:53:17;;;;;;;5.37;4.87;;;14.80;99.90;;;;;;5036786;28;20283;-79
2023/06/08 01:55:49;;;;;;;6.30;5.70;;;14.70;99.90;;;;;;5035251;28;20257;-78
2023/06/08 01:58:16;;;;;;;5.00;4.50;;;14.60;99.90;;;;;;5036973;28;20189;-78
2023/06/08 02:00:42;;;;;;;5.07;4.43;;;14.60;99.90;;;;;;5035448;28;20204;-78
2023/06/08 02:03:09;;;;;;;7.00;6.30;;;14.50;99.90;;;;;;5036359;28;20249;-77
2023/06/08 02:05:36;;;;;;;7.20;5.23;;;14.60;99.90;;;;;;5035030;28;20622;-79
2023/06/08 02:08:03;;;;;;;5.60;5.00;;;14.50;99.90;;;;;;5034848;28;20267;-78
2023/06/08 02:10:30;;;;;;;5.50;4.50;;;14.40;99.90;;;;;;5034823;28;20600;-79
2023/06/08 02:12:59;;;;;;;5.90;5.30;;;14.40;99.90;;;;;;5036478;28;20222;-78
2023/06/08 02:15:26;;;;;;;5.20;4.67;;;14.40;99.90;;;;;;5034994;28;20207;-78
2023/06/08 02:17:53;;;;;;;6.07;5.20;;;14.20;99.90;;;;;;5034716;28;20205;-78
2023/06/08 02:20:21;;;;;;;5.87;5.20;;;14.20;99.90;;;;;;5045670;28;20239;-78
2023/06/08 02:22:47;;;;;;;7.43;6.00;;;14.20;99.90;;;;;;5034813;28;20231;-78
2023/06/08 02:25:14;;;;;;;6.97;5.07;;;14.10;99.90;;;;;;5034322;28;20221;-79
2023/06/08 02:27:43;;;;;;;6.30;5.70;;;14.10;99.90;;;;;;5034544;28;20605;-78
2023/06/08 02:30:13;;;;;;;6.30;5.63;;;14.10;99.90;;;;;;5036121;28;20214;-78
2023/06/08 02:32:41;;;;;;;6.27;5.50;;;14.10;99.90;;;;;;5034917;28;20228;-79
2023/06/08 02:35:09;;;;;;;7.90;5.63;;;14.10;99.90;;;;;;5034129;28;20200;-78
2023/06/08 02:37:39;;;;;;;6.10;5.50;;;14.00;99.90;;;;;;5040014;28;20196;-78
2023/06/08 02:40:09;;;;;;;6.07;5.47;;;14.00;99.90;;;;;;5032140;28;20203;-78
2023/06/08 02:42:39;;;;;;;6.57;4.90;;;14.00;99.90;;;;;;5034350;28;20216;-78
2023/06/08 02:45:09;;;;;;;6.20;5.60;;;14.00;99.90;;;;;;5032996;28;20557;-78
2023/06/08 02:47:37;;;;;;;4.60;4.20;;;14.00;99.90;;;;;;5033909;28;20615;-80
2023/06/08 02:50:05;;;;;;;5.73;5.13;;;14.00;99.90;;;;;;5023857;28;20232;-81
2023/06/08 02:52:32;;;;;;;6.00;5.40;;;14.00;99.90;;;;;;5034415;28;20224;-85
2023/06/08 02:54:59;;;;;;;6.77;5.43;;;14.00;99.90;;;;;;5029394;28;20223;-81
2023/06/08 02:57:26;;;;;;;5.80;5.20;;;14.00;99.90;;;;;;5031426;28;20204;-81
2023/06/08 02:59:58;;;;;;;7.00;5.37;;;13.90;99.90;;;;;;5030439;28;20226;-81
2023/06/08 03:02:27;;;;;;;5.90;5.33;;;13.90;99.90;;;;;;5038520;28;20218;-81
2023/06/08 03:04:58;;;;;;;7.70;5.60;;;13.80;99.90;;;;;;5036952;28;20199;-81
2023/06/08 03:07:27;;;;;;;6.83;5.80;;;13.80;99.90;;;;;;5025359;28;20231;-81
2023/06/08 03:09:59;;;;;;;4.87;4.47;;;13.80;99.90;;;;;;5029205;28;20214;-80
2023/06/08 03:12:26;;;;;;;6.03;5.53;;;13.80;99.90;;;;;;5033682;28;20216;-81
2023/06/08 03:14:54;;;;;;;6.77;5.73;;;13.80;99.90;;;;;;5032853;28;20206;-80
2023/06/08 03:17:24;;;;;;;6.83;5.67;;;13.80;99.90;;;;;;5033158;28;20204;-81
2023/06/08 03:19:52;;;;;;;5.23;4.73;;;13.80;99.90;;;;;;5038440;28;20201;-80
2023/06/08 03:22:25;;;;;;;4.43;4.00;;;13.80;99.90;;;;;;5030699;28;20285;-81
2023/06/08 03:25:03;;;;;;;4.73;4.20;;;13.80;99.90;;;;;;5035617;28;20303;-80
2023/06/08 03:27:30;;;;;;;5.77;5.10;;;13.70;99.90;;;;;;5038201;28;20207;-81
2023/06/08 03:30:01;;;;;;;5.77;5.17;;;13.70;99.90;;;;;;5030342;28;20201;-81
2023/06/08 03:32:37;;;;;;;5.00;4.50;;;13.70;99.90;;;;;;5032694;28;20301;-81
2023/06/08 03:35:05;;;;;;;5.23;4.77;;;13.60;99.90;;;;;;5034616;28;20205;-79
2023/06/08 03:37:34;;;;;;;5.77;4.40;;;13.60;99.90;;;;;;5036094;28;20558;-81
2023/06/08 03:40:03;;;;;;;5.83;4.80;;;13.60;99.90;;;;;;5037612;28;20197;-80
2023/06/08 03:42:31;;;;;;;6.73;4.87;;;13.50;99.90;;;;;;5035800;28;20220;-81
2023/06/08 03:44:58;;;;;;;5.27;4.70;;;13.50;99.90;;;;;;5033493;28;20267;-82
2023/06/08 03:47:26;;;;;;;7.20;4.60;;;13.50;99.90;;;;;;5046301;28;20286;-81
2023/06/08 03:49:54;;;;;;;5.63;4.53;;;13.60;99.90;;;;;;5027736;28;20294;-81
2023/06/08 03:52:21;;;;;;;6.20;4.57;;;13.60;99.90;;;;;;5037470;28;20228;-82
2023/06/08 03:54:49;;;;;;;5.63;4.50;;;13.50;99.90;;;;;;5031417;28;20686;-80
2023/06/08 03:57:20;;;;;;;6.27;4.70;;;13.60;99.90;;;;;;5034833;28;20201;-82
2023/06/08 03:59:47;;;;;;;5.33;4.43;;;13.60;99.90;;;;;;5034910;28;20201;-82
2023/06/08 04:02:13;;;;;;;5.23;4.17;;;13.70;99.90;;;;;;5028847;28;20222;-82
2023/06/08 04:04:40;;;;;;;4.83;4.27;;;13.70;99.90;;;;;;5035672;28;20203;-81
2023/06/08 04:07:08;;;;;;;5.03;4.53;;;13.70;99.90;;;;;;5025708;28;20203;-81
2023/06/08 04:09:35;;;;;;;4.90;4.40;;;13.80;99.90;;;;;;5034127;28;20211;-79
2023/06/08 04:12:05;;;;;;;5.27;4.77;;;13.80;99.90;;;;;;5034725;28;20277;-81
2023/06/08 04:14:32;;;;;;;5.50;4.60;;;13.90;99.90;;;;;;5018588;28;20197;-83
2023/06/08 04:16:59;;;;;;;6.03;4.47;;;13.90;99.90;;;;;;5033705;28;20224;-79
2023/06/08 04:19:27;;;;;;;5.43;4.27;;;13.90;99.90;;;;;;5029272;28;20273;-82
2023/06/08 04:21:56;;;;;;;4.90;4.40;;;14.00;99.90;;;;;;5044574;28;20277;-79
2023/06/08 04:24:25;;;;;;;5.13;4.63;;;14.10;99.90;;;;;;5045416;28;20247;-80
2023/06/08 04:26:51;;;;;;;5.53;4.17;;;14.20;99.90;;;;;;5031603;28;20688;-79
2023/06/08 04:29:20;;;;;;;6.60;4.53;;;14.30;99.90;;;;;;5032178;28;20296;-82
2023/06/08 04:31:48;;;;;;;5.33;4.40;;;14.40;99.90;;;;;;5031325;28;20218;-78
2023/06/08 04:34:15;;;;;;;5.37;4.67;;;14.60;99.90;;;;;;5032268;28;20202;-77
2023/06/08 04:36:43;;;;;;;4.57;4.17;;;14.70;99.90;;;;;;5031932;28;20199;-78
2023/06/08 04:39:11;;;;;;;4.87;4.30;;;14.90;99.90;;;;;;5031790;28;20204;-78
2023/06/08 04:41:41;;;;;;;4.60;4.20;;;15.10;99.90;;;;;;5031354;28;20593;-78
2023/06/08 04:44:08;;;;;;;5.03;4.40;;;15.30;99.90;;;;;;5031394;28;20685;-78
2023/06/08 04:46:38;;;;;;;5.80;4.60;;;15.30;99.90;;;;;;5023868;28;20295;-78
2023/06/08 04:49:05;;;;;;;5.03;4.40;;;15.90;99.90;;;;;;5033087;28;20293;-78
2023/06/08 04:51:32;;;;;;;4.97;4.23;;;17.00;99.90;;;;;;5033392;28;20288;-78
2023/06/08 04:54:00;;;;;;;4.50;4.10;;;17.50;99.90;;;;;;5033815;28;20657;-78
2023/06/08 04:56:29;;;;;;;5.57;4.50;;;17.90;99.90;;;;;;5033577;28;20207;-78
2023/06/08 04:58:56;;;;;;;5.60;4.23;;;18.20;99.90;;;;;;5027766;28;20334;-78
2023/06/08 05:01:23;;;;;;;4.83;4.30;;;18.10;99.90;;;;;;5034337;28;20295;-78
2023/06/08 05:03:52;;;;;;;4.27;3.87;;;17.80;99.90;;;;;;5024126;28;20220;-78
2023/06/08 05:06:19;;;;;;;4.63;4.20;;;17.70;99.90;;;;;;5032195;28;20201;-78
2023/06/08 05:08:46;;;;;;;5.93;4.43;;;17.70;99.90;;;;;;5031969;28;20663;-78
2023/06/08 05:11:13;;;;;;;4.50;4.00;;;17.70;99.90;;;;;;5035267;28;20244;-78
2023/06/08 05:13:40;;;;;;;4.63;4.20;;;17.70;99.90;;;;;;5035232;28;20680;-78
2023/06/08 05:16:07;;;;;;;4.60;3.90;;;17.70;99.90;;;;;;5034738;28;20240;-78
2023/06/08 05:18:33;;;;;;;4.93;4.03;;;17.70;99.90;;;;;;5038472;28;20202;-78
2023/06/08 05:21:01;;;;;;;4.40;4.00;;;17.80;99.90;;;;;;5038840;28;20198;-78
2023/06/08 05:23:28;;;;;;;4.47;4.00;;;17.90;99.90;;;;;;5038026;28;20207;-78
2023/06/08 05:25:55;;;;;;;4.37;3.97;;;17.90;99.90;;;;;;5039915;28;20221;-78
2023/06/08 05:28:22;;;;;;;4.53;4.10;;;17.90;99.90;;;;;;5038600;28;20253;-77
2023/06/08 05:30:49;;;;;;;6.17;4.50;;;17.90;99.90;;;;;;5037789;28;20713;-78
2023/06/08 05:33:16;;;;;;;5.50;4.07;;;17.90;99.90;;;;;;5038685;28;20214;-78
2023/06/08 05:35:43;;;;;;;4.60;4.20;;;18.00;99.90;;;;;;5039363;28;20924;-78
2023/06/08 05:38:11;;;;;;;4.37;3.97;;;18.30;99.90;;;;;;5037026;28;20210;-78
2023/06/08 05:40:39;;;;;;;4.17;3.77;;;18.60;99.90;;;;;;5039469;28;20223;-78
2023/06/08 05:43:05;;;;;;;4.90;3.87;;;19.10;99.90;;;;;;5038825;28;20211;-78
2023/06/08 05:45:32;;;;;;;4.40;4.00;;;19.60;99.90;;;;;;5034501;28;20254;-79
2023/06/08 05:47:59;;;;;;;4.20;3.80;;;20.10;99.90;;;;;;5037603;28;20192;-78
2023/06/08 05:50:26;;;;;;;5.97;4.03;;;20.70;99.90;;;;;;5038440;28;20199;-79
2023/06/08 05:52:52;;;;;;;4.27;3.87;;;21.40;99.90;;;;;;5038700;28;20253;-78
2023/06/08 05:55:21;;;;;;;4.37;3.97;;;22.00;99.90;;;;;;5037024;28;20204;-78
2023/06/08 05:57:48;;;;;;;4.00;3.60;;;22.80;99.90;;;;;;5038652;28;20196;-78
2023/06/08 06:00:15;;;;;;;4.27;3.77;;;23.30;99.90;;;;;;5028789;28;20622;-76
2023/06/08 06:02:42;;;;;;;4.33;3.60;;;23.70;99.90;;;;;;5034250;28;20208;-78
2023/06/08 06:05:10;;;;;;;4.63;3.70;;;24.20;99.90;;;;;;5038519;28;20720;-79
2023/06/08 06:07:37;;;;;;;5.30;3.70;;;24.40;99.90;;;;;;5038706;28;20243;-79
2023/06/08 06:10:05;;;;;;;3.93;3.57;;;24.90;99.90;;;;;;5037191;28;20199;-84
2023/06/08 06:12:33;;;;;;;3.80;3.50;;;25.30;99.90;;;;;;5037227;28;20219;-79
2023/06/08 06:15:00;;;;;;;5.43;3.60;;;25.40;99.90;;;;;;5038913;28;20658;-80
2023/06/08 06:17:27;;;;;;;4.00;3.60;;;25.50;99.90;;;;;;5034480;28;20200;-80
2023/06/08 06:19:54;;;;;;;5.90;5.30;;;25.80;99.90;;;;;;5036358;28;20283;-80
2023/06/08 06:22:22;;;;;;;5.93;5.27;;;25.90;99.90;;;;;;5035757;28;20211;-80
2023/06/08 06:24:48;;;;;;;5.90;4.30;;;26.10;99.90;;;;;;5041866;28;20196;-81
2023/06/08 06:27:15;;;;;;;6.53;5.93;;;26.30;99.90;;;;;;5034038;28;20216;-80
2023/06/08 06:29:44;;;;;;;6.43;5.93;;;26.10;99.90;;;;;;5042692;28;20203;-78
2023/06/08 06:32:12;;;;;;;6.27;5.77;;;25.40;99.90;;;;;;5047879;28;20780;-81
2023/06/08 06:34:39;;;;;;;4.67;4.27;;;24.60;99.90;;;;;;5041321;28;20198;-80
2023/06/08 06:37:06;;;;;;;6.17;4.20;;;24.00;99.90;;;;;;5035381;28;20204;-76
2023/06/08 06:39:33;;;;;;;5.97;3.83;;;24.00;99.90;;;;;;5028157;28;20204;-76
2023/06/08 06:42:00;;;;;;;4.63;4.03;;;23.70;99.90;;;;;;5027424;28;20724;-76
2023/06/08 06:44:34;;;;;;;5.40;3.93;;;23.30;99.90;;;;;;5028279;28;20203;-77
2023/06/08 06:47:02;;;;;;;4.63;3.77;;;24.00;99.90;;;;;;5035240;28;20202;-82
2023/06/08 06:49:29;;;;;;;4.53;3.83;;;24.10;99.90;;;;;;5029619;28;20581;-79
2023/06/08 06:51:56;;;;;;;5.00;3.50;;;23.70;99.90;;;;;;5026138;28;20653;-76
2023/06/08 06:54:23;;;;;;;4.90;4.50;;;23.40;99.90;;;;;;5026955;28;20199;-77
2023/06/08 06:56:50;;;;;;;6.00;5.47;;;23.10;99.90;;;;;;5032677;28;20230;-77
2023/06/08 06:59:20;;;;;;;6.23;5.63;;;22.90;99.90;;;;;;5026052;28;20226;-77
2023/06/08 07:01:47;;;;;;;6.10;5.57;;;22.60;99.90;;;;;;5033517;28;20216;-77
2023/06/08 07:04:15;;;;;;;4.73;4.23;;;22.40;99.90;;;;;;5024459;28;20693;-76
2023/06/08 07:06:42;;;;;;;4.53;4.13;;;22.20;99.90;;;;;;5023674;28;20211;-77
2023/06/08 07:09:09;;;;;;;6.57;6.07;;;22.10;99.90;;;;;;5028236;28;20203;-77
2023/06/08 07:11:36;;;;;;;3.97;3.57;;;22.00;99.90;;;;;;5031612;28;20226;-77
2023/06/08 07:14:03;;;;;;;6.27;5.67;;;22.00;99.90;;;;;;5030286;28;20195;-77
2023/06/08 07:16:30;;;;;;;6.20;5.20;;;21.90;99.90;;;;;;5034693;28;20192;-80
2023/06/08 07:18:56;;;;;;;6.50;5.83;;;21.90;99.90;;;;;;5033105;28;20204;-84
2023/06/08 07:21:25;;;;;;;6.07;5.50;;;21.90;99.90;;;;;;5035208;28;20266;-81
2023/06/08 07:23:52;;;;;;;5.07;4.57;;;22.00;99.90;;;;;;5026839;28;20196;-79
2023/06/08 07:26:19;;;;;;;5.27;4.27;;;22.30;99.90;;;;;;5037033;28;20204;-81
2023/06/08 07:28:47;;;;;;;5.80;3.60;;;23.00;99.90;;;;;;5032934;28;20223;-81
2023/06/08 07:31:14;;;;;;;4.67;3.83;;;23.60;99.90;;;;;;5033151;28;20232;-77
2023/06/08 07:33:41;;;;;;;5.60;4.67;;;24.20;99.90;;;;;;5026146;28;20348;-76
2023/06/08 07:36:07;;;;;;;4.10;3.30;;;24.00;99.90;;;;;;5035142;28;20223;-77
2023/06/08 07:38:36;;;;;;;4.87;3.40;;;24.70;99.90;;;;;;5034683;28;20196;-77
2023/06/08 07:41:02;;;;;;;5.57;4.07;;;25.40;99.90;;;;;;5034737;28;20223;-77
2023/06/08 07:43:29;;;;;;;5.87;3.83;;;26.00;99.90;;;;;;5031645;28;20246;-77
2023/06/08 07:45:56;;;;;;;5.83;3.73;;;26.20;99.90;;;;;;5029524;28;20709;-77
2023/06/08 07:48:23;;;;;;;6.23;5.73;;;26.40;99.90;;;;;;5031910;28;20203;-77
2023/06/08 07:50:50;;;;;;;6.40;5.90;;;26.70;99.90;;;;;;5034983;28;20639;-77
2023/06/08 07:53:18;;;;;;;6.07;5.47;;;27.10;99.90;;;;;;5025722;28;20223;-78
2023/06/08 07:55:47;;;;;;;6.43;5.83;;;27.50;99.90;;;;;;5030869;28;20233;-77
2023/06/08 07:58:13;;;;;;;5.10;4.53;;;27.70;99.90;;;;;;5025798;28;20200;-77
2023/06/08 08:00:40;;;;;;;4.33;3.93;;;28.10;99.90;;;;;;5027354;28;20212;-81
2023/06/08 08:03:07;;;;;;;5.33;4.87;;;28.70;99.90;;;;;;5034741;28;20224;-81
2023/06/08 08:05:34;;;;;;;3.73;3.40;;;28.60;99.50;;;;;;5035385;28;20574;-81
2023/06/08 08:08:01;;;;;;;6.00;5.40;;;28.60;99.90;;;;;;5031704;28;20204;-80
2023/06/08 08:10:28;;;;;;;6.30;5.17;;;28.20;99.90;;;;;;5036377;28;20249;-80
2023/06/08 08:12:56;;;;;;;5.30;4.73;;;27.90;99.90;;;;;;5023912;28;20212;-79
2023/06/08 08:15:23;;;;;;;4.40;4.00;;;27.40;99.90;;;;;;5025734;28;20477;-77
2023/06/08 08:17:50;;;;;;;3.90;3.50;;;26.80;99.90;;;;;;5028514;28;20196;-76
2023/06/08 08:20:17;;;;;;;3.43;2.90;;;27.00;99.90;;;;;;5039697;28;20194;-76
2023/06/08 08:22:44;;;;;;;4.33;3.93;;;27.60;99.90;;;;;;5028530;28;20577;-77
2023/06/08 08:25:11;;;;;;;4.30;3.43;;;27.90;99.90;;;;;;5025713;28;20196;-84
2023/06/08 08:27:38;;;;;;;5.43;3.67;;;27.90;99.90;;;;;;5033079;28;20200;-77
2023/06/08 08:30:08;;;;;;;5.33;3.83;;;28.00;99.80;;;;;;5025576;28;20200;-77
2023/06/08 08:32:35;;;;;;;3.60;3.30;;;28.30;99.90;;;;;;5030542;28;20242;-77
2023/06/08 08:35:02;;;;;;;3.70;3.30;;;28.50;99.70;;;;;;5026166;28;20226;-76
2023/06/08 08:37:31;;;;;;;4.90;4.47;;;28.70;98.70;;;;;;5023238;28;20197;-76
2023/06/08 08:39:58;;;;;;;5.43;4.53;;;28.40;98.70;;;;;;5024704;28;20282;-77
2023/06/08 08:42:27;;;;;;;5.30;4.90;;;28.40;99.50;;;;;;5029198;28;20297;-76
2023/06/08 08:44:56;;;;;;;5.13;4.53;;;29.00;99.90;;;;;;5031878;28;20242;-79
2023/06/08 08:47:26;;;;;;;4.27;3.53;;;29.50;98.50;;;;;;5036741;28;20291;-79
2023/06/08 08:50:00;;;;;;;4.00;3.27;;;29.50;95.70;;;;;;5036938;28;20196;-80
2023/06/08 08:52:29;;;;;;;4.00;3.33;;;29.40;97.20;;;;;;5035392;28;20220;-79
2023/06/08 08:55:00;;;;;;;3.77;3.30;;;29.90;96.80;;;;;;5034326;28;20230;-80
2023/06/08 08:57:28;;;;;;;5.57;5.07;;;30.00;96.60;;;;;;5029983;28;20227;-76
2023/06/08 08:59:56;;;;;;;5.30;4.90;;;29.90;98.00;;;;;;5021105;28;20231;-76
2023/06/08 09:02:25;;;;;;;5.50;5.00;;;30.10;96.30;;;;;;5025056;28;20217;-77
2023/06/08 09:04:53;;;;;;;7.93;5.47;;;30.40;98.20;;;;;;5022034;28;20260;-77
2023/06/08 09:07:24;;;;;;;5.40;4.90;;;30.10;96.40;;;;;;5019397;28;20264;-76
2023/06/08 09:10:17;;;;;;;5.50;5.00;;;30.10;96.10;;;;;;5030605;28;20192;-76
2023/06/08 09:12:46;;;;;;;6.17;5.57;;;29.90;97.80;;;;;;5025377;28;20212;-76
2023/06/08 09:15:16;;;;;;;5.57;5.17;;;29.90;97.20;;;;;;5015706;28;20360;-77
2023/06/08 09:17:44;;;;;;;6.20;5.60;;;30.40;97.80;;;;;;5022794;28;20211;-77
2023/06/08 09:20:12;;;;;;;5.47;4.97;;;30.10;96.60;;;;;;5033726;28;20227;-81
2023/06/08 09:22:39;;;;;;;7.17;5.33;;;30.50;97.60;;;;;;5027735;28;20562;-79
2023/06/08 09:25:07;;;;;;;6.07;5.10;;;30.60;95.90;;;;;;5031686;28;20243;-82
2023/06/08 09:27:35;;;;;;;5.87;5.37;;;30.40;94.30;;;;;;5032937;28;20196;-81
2023/06/08 09:30:02;;;;;;;5.10;4.70;;;30.10;95.50;;;;;;5036572;28;20651;-82
2023/06/08 09:32:33;;;;;;;5.90;5.30;;;30.30;93.20;;;;;;5021084;28;20686;-81
2023/06/08 09:35:02;;;;;;;6.37;5.87;;;29.80;94.20;;;;;;5037179;28;20188;-81
2023/06/08 09:37:30;;;;;;;6.27;5.67;;;29.50;95.00;;;;;;5036303;28;20204;-82
2023/06/08 09:39:58;;;;;;;6.07;5.57;;;28.90;94.20;;;;;;5033286;28;20208;-81
2023/06/08 09:42:39;;;;;;;6.30;5.80;;;28.70;94.80;;;;;;5035511;28;20278;-83
2023/06/08 09:45:09;;;;;;;6.50;6.00;;;29.00;94.40;;;;;;5030986;28;20200;-81
2023/06/08 09:47:36;;;;;;;7.00;6.40;;;28.70;94.70;;;;;;5034813;28;20200;-78
2023/06/08 09:50:07;;;;;;;7.23;6.53;;;28.70;93.50;;;;;;5038613;28;20226;-79
2023/06/08 09:52:35;;;;;;;7.30;6.70;;;28.70;95.40;;;;;;5040150;28;20299;-78
2023/06/08 09:55:03;;;;;;;8.40;6.47;;;28.90;94.00;;;;;;5028705;28;20196;-78
2023/06/08 09:57:34;;;;;;;6.63;6.13;;;29.00;95.70;;;;;;5040143;28;20537;-78
2023/06/08 10:00:14;;;;;;;6.70;6.10;;;29.40;95.00;;;;;;5033328;28;20240;-79
2023/06/08 10:02:50;;;;;;;7.17;6.40;;;29.60;94.90;;;;;;5027765;28;20223;-79
2023/06/08 10:05:22;;;;;;;6.87;6.27;;;29.80;94.00;;;;;;5039035;28;20208;-78
2023/06/08 10:07:51;;;;;;;7.70;7.10;;;29.90;92.40;;;;;;5033558;28;20827;-79
2023/06/08 10:10:21;;;;;;;7.60;6.90;;;29.90;92.00;;;;;;5033636;28;20211;-79
2023/06/08 10:12:51;;;;;;;6.60;5.90;;;29.90;92.60;;;;;;5036191;28;20306;-79
2023/06/08 10:15:21;;;;;;;5.57;5.07;;;30.00;90.60;;;;;;5034233;28;20670;-79
2023/06/08 10:17:48;;;;;;;5.70;5.20;;;29.90;90.30;;;;;;5035246;28;20204;-79
2023/06/08 10:20:16;;;;;;;5.30;4.90;;;29.80;89.70;;;;;;5040196;28;20207;-79
2023/06/08 10:22:45;;;;;;;6.00;5.40;;;29.70;89.70;;;;;;5038102;28;20220;-78
2023/06/08 10:25:16;;;;;;;6.37;5.87;;;29.70;90.10;;;;;;5037570;28;20196;-78
2023/06/08 10:27:49;;;;;;;4.90;4.50;;;29.20;88.10;;;;;;5038583;28;20204;-78
2023/06/08 10:30:27;;;;;;;6.07;5.47;;;28.60;87.40;;;;;;5036242;28;20202;-78
2023/06/08 10:32:55;;;;;;;7.20;6.60;;;28.00;90.30;;;;;;5029140;28;20318;-78
2023/06/08 10:35:22;;;;;;;6.20;5.70;;;27.70;90.60;;;;;;5036150;28;20200;-79
2023/06/08 10:37:50;;;;;;;7.07;6.50;;;27.30;90.70;;;;;;5033935;28;20210;-78
2023/06/08 10:40:20;;;;;;;7.87;7.27;;;27.00;90.70;;;;;;5042387;28;20196;-79
2023/06/08 10:42:55;;;;;;;5.50;5.00;;;26.50;90.70;;;;;;5037702;28;20216;-78
2023/06/08 10:45:31;;;;;;;6.40;5.90;;;26.40;91.90;;;;;;5037202;28;20733;-79
2023/06/08 10:48:03;;;;;;;5.07;4.57;;;26.30;93.20;;;;;;5030431;28;20196;-80
2023/06/08 10:50:31;;;;;;;6.07;5.57;;;26.20;92.80;;;;;;5038354;28;20572;-79
2023/06/08 10:52:59;;;;;;;6.90;6.30;;;26.00;92.90;;;;;;5030068;28;20220;-79
2023/06/08 10:55:28;;;;;;;5.20;4.70;;;26.00;94.30;;;;;;5037126;28;20196;-79
2023/06/08 10:57:55;;;;;;;4.57;4.17;;;26.00;93.50;;;;;;5033463;28;20671;-79
2023/06/08 11:00:45;;;;;;;7.60;7.00;;;26.10;96.00;;;;;;5028479;28;20646;-79
2023/06/08 11:03:16;;;;;;;4.40;3.93;;;26.00;93.30;;;;;;5032125;28;20482;-79
2023/06/08 11:05:44;;;;;;;4.30;3.63;;;26.00;94.70;;;;;;5035277;28;20601;-78
2023/06/08 11:08:13;;;;;;;7.57;6.97;;;26.10;95.50;;;;;;5036933;28;20209;-79
2023/06/08 11:10:40;;;;;;;7.63;6.93;;;26.30;94.90;;;;;;5031636;28;20278;-79
2023/06/08 11:13:09;;;;;;;7.40;6.70;;;26.10;94.60;;;;;;5042469;28;20219;-79
2023/06/08 11:15:37;;;;;;;7.47;6.63;;;26.20;97.20;;;;;;5039302;28;20204;-79
2023/06/08 11:18:07;;;;;;;7.43;6.70;;;26.30;94.10;;;;;;5037605;28;20621;-81
2023/06/08 11:20:37;;;;;;;7.30;6.70;;;26.40;96.20;;;;;;5051781;28;20233;-79
2023/06/08 11:23:07;;;;;;;4.50;4.10;;;26.40;96.60;;;;;;5028550;28;20219;-77
2023/06/08 11:25:35;;;;;;;5.10;4.60;;;26.50;98.90;;;;;;5029233;28;20576;-76
2023/06/08 11:28:03;;;;;;;6.87;6.17;;;26.50;98.20;;;;;;5030395;28;20285;-77
2023/06/08 11:30:33;;;;;;;7.27;6.63;;;26.40;99.10;;;;;;5027002;28;20204;-77
2023/06/08 11:33:01;;;;;;;6.93;6.33;;;26.10;99.90;;;;;;5029377;28;20712;-77
2023/06/08 11:35:27;;;;;;;6.97;6.27;;;25.90;99.90;;;;;;5028936;28;20188;-77
2023/06/08 11:37:59;;;;;;;5.23;4.43;;;25.70;99.90;;;;;;5029946;28;20203;-76
2023/06/08 11:40:26;;;;;;;4.60;4.07;;;25.50;99.90;;;;;;5020698;28;20215;-80
2023/06/08 11:43:01;;;;;;;5.47;4.90;;;25.20;99.90;;;;;;5024441;28;20227;-81
2023/06/08 11:45:28;;;;;;;7.80;7.10;;;24.90;99.90;;;;;;5033445;28;20202;-79
2023/06/08 11:47:57;;;;;;;5.57;4.13;;;24.40;98.90;;;;;;5025941;28;20200;-80
2023/06/08 11:50:24;;;;;;;6.90;4.10;;;24.00;98.50;;;;;;5029865;28;20729;-80
2023/06/08 11:52:51;;;;;;;5.93;4.20;;;23.70;99.80;;;;;;5029625;28;20246;-80
2023/06/08 11:55:22;;;;;;;7.23;6.17;;;23.30;98.50;;;;;;5030176;28;20478;-81
2023/06/08 11:57:55;;;;;;;8.00;7.20;;;22.90;97.50;;;;;;5036073;28;20204;-80
2023/06/08 12:00:24;;;;;;;8.23;7.33;;;22.50;98.30;;;;;;5037049;28;20200;-80
2023/06/08 12:02:52;;;;;;;10.63;6.80;;;22.10;99.00;;;;;;5032911;28;20207;-80
2023/06/08 12:05:20;;;;;;;9.37;5.57;;;22.00;99.70;;;;;;5032248;28;20257;-79
2023/06/08 12:07:57;;;;;;;5.67;4.03;;;21.80;99.90;;;;;;5035159;28;20200;-80
2023/06/08 12:10:31;;;;;;;4.93;3.73;;;21.60;99.90;;;;;;5036298;28;20200;-80
2023/06/08 12:13:00;;;;;;;4.60;3.77;;;21.30;99.90;;;;;;5029106;28;20228;-76
2023/06/08 12:15:27;;;;;;;5.80;4.20;;;21.10;99.90;;;;;;5022906;28;20530;-76
2023/06/08 12:18:01;;;;;;;7.07;5.27;;;21.20;99.90;;;;;;5027527;28;20201;-79
2023/06/08 12:20:31;;;;;;;5.13;4.50;;;21.30;99.90;;;;;;5020275;28;20204;-76
2023/06/08 12:22:58;;;;;;;7.27;4.90;;;21.50;99.90;;;;;;5018562;28;20295;-76
2023/06/08 12:25:25;;;;;;;5.60;5.00;;;21.60;99.90;;;;;;5018738;28;20238;-76
2023/06/08 12:27:52;;;;;;;6.37;5.53;;;21.70;99.90;;;;;;5028594;28;20192;-76
2023/06/08 12:30:20;;;;;;;7.03;5.40;;;21.80;99.90;;;;;;5021694;28;20279;-76
2023/06/08 12:32:47;;;;;;;6.23;4.30;;;21.80;99.90;;;;;;5022510;28;20232;-76
2023/06/08 12:35:14;;;;;;;6.17;3.90;;;21.90;99.90;;;;;;5042307;28;20203;-77
2023/06/08 12:37:41;;;;;;;6.73;4.03;;;22.00;99.90;;;;;;5035135;28;20226;-76
2023/06/08 12:40:09;;;;;;;5.20;3.70;;;22.20;99.90;;;;;;5025667;28;20255;-76
2023/06/08 12:42:36;;;;;;;6.03;4.03;;;22.40;99.90;;;;;;5021234;28;20698;-76
2023/06/08 12:45:03;;;;;;;4.57;3.60;;;22.80;99.90;;;;;;5018410;28;20197;-76
2023/06/08 12:47:31;;;;;;;4.83;3.80;;;23.30;99.90;;;;;;5016653;28;20257;-77
2023/06/08 12:49:58;;;;;;;6.27;4.23;;;23.80;99.90;;;;;;5025739;28;20201;-76
2023/06/08 12:52:24;;;;;;;6.70;4.40;;;24.40;99.90;;;;;;5026296;28;20273;-77
2023/06/08 12:54:52;;;;;;;4.70;3.70;;;24.80;99.90;;;;;;5027794;28;20231;-77